sensor_id;sensor_type;location;lat;lon;timestamp;pressure;altitude;pressure_sealevel;temperature;humidity
39739;BME280;25422;48.286;8.484;2023-05-10T00:00:27;93546.50;;;9.58;100.00
39739;BME280;25422;48.286;8.484;2023-05-10T00:02:52;93548.81;;;9.53;100.00
39739;BME280;25422;48.286;8.484;2023-05-10T00:05:18;93546.75;;;9.49;100.00
39739;BME280;25422;48.286;8.484;2023-05-10T00:07:43;93557.56;;;9.45;100.00
39739;BME280;25422;48.286;8.484;2023-05-10T00:10:10;93560.81;;;9.48;100.00
39739;BME280;25422;48.286;8.484;2023-05-10T00:12:36;93563.31;;;9.56;100.00
39739;BME280;25422;48.286;8.484;2023-05-10T00:15:01;93555.84;;;9.53;100.00
39739;BME280;25422;48.286;8.484;2023-05-10T00:17:28;93562.44;;;9.49;100.00
39739;BME280;25422;48.286;8.484;2023-05-10T00:19:53;93563.22;;;9.49;100.00
39739;BME280;25422;48.286;8.484;2023-05-10T00:22:19;93565.22;;;9.47;100.00
39739;BME280;25422;48.286;8.484;2023-05-10T00:24:45;93564.84;;;9.50;100.00
39739;BME280;25422;48.286;8.484;2023-05-10T00:27:11;93561.44;;;9.50;100.00
39739;BME280;25422;48.286;8.484;2023-05-10T00:29:36;93564.06;;;9.50;100.00
39739;BME280;25422;48.286;8.484;2023-05-10T00:32:01;93568.81;;;9.46;100.00
39739;BME280;25422;48.286;8.484;2023-05-10T00:34:27;93573.50;;;9.51;100.00
39739;BME280;25422;48.286;8.484;2023-05-10T00:36:52;93565.22;;;9.47;100.00
39739;BME280;25422;48.286;8.484;2023-05-10T00:39:17;93572.88;;;9.49;100.00
39739;BME280;25422;48.286;8.484;2023-05-10T00:41:43;93576.94;;;9.51;100.00
39739;BME280;25422;48.286;8.484;2023-05-10T00:44:08;93576.47;;;9.48;100.00
39739;BME280;25422;48.286;8.484;2023-05-10T00:46:34;93585.94;;;9.49;100.00
39739;BME280;25422;48.286;8.484;2023-05-10T00:49:00;93584.66;;;9.44;100.00
39739;BME280;25422;48.286;8.484;2023-05-10T00:51:25;93582.06;;;9.44;100.00
39739;BME280;25422;48.286;8.484;2023-05-10T00:53:51;93578.97;;;9.41;100.00
39739;BME280;25422;48.286;8.484;2023-05-10T00:56:19;93578.78;;;9.42;100.00
39739;BME280;25422;48.286;8.484;2023-05-10T00:58:48;93575.38;;;9.42;100.00
39739;BME280;25422;48.286;8.484;2023-05-10T01:01:14;93576.72;;;9.38;100.00
39739;BME280;25422;48.286;8.484;2023-05-10T01:03:39;93585.34;;;9.38;100.00
39739;BME280;25422;48.286;8.484;2023-05-10T01:06:05;93581.84;;;9.31;100.00
39739;BME280;25422;48.286;8.484;2023-05-10T01:08:31;93582.31;;;9.35;100.00
39739;BME280;25422;48.286;8.484;2023-05-10T01:10:57;93587.53;;;9.35;100.00
39739;BME280;25422;48.286;8.484;2023-05-10T01:13:34;93578.88;;;9.34;100.00
39739;BME280;25422;48.286;8.484;2023-05-10T01:16:01;93574.63;;;9.33;100.00
39739;BME280;25422;48.286;8.484;2023-05-10T01:18:36;93585.06;;;9.33;100.00
39739;BME280;25422;48.286;8.484;2023-05-10T01:21:13;93584.38;;;9.39;100.00
39739;BME280;25422;48.286;8.484;2023-05-10T01:29:16;93591.47;;;9.31;100.00
39739;BME280;25422;48.286;8.484;2023-05-10T01:32:09;93593.06;;;9.32;100.00
39739;BME280;25422;48.286;8.484;2023-05-10T01:37:31;93593.97;;;9.24;100.00
39739;BME280;25422;48.286;8.484;2023-05-10T01:40:06;93595.94;;;9.22;100.00
39739;BME280;25422;48.286;8.484;2023-05-10T01:42:41;93593.78;;;9.25;100.00
39739;BME280;25422;48.286;8.484;2023-05-10T01:45:18;93597.84;;;9.28;100.00
39739;BME280;25422;48.286;8.484;2023-05-10T01:47:53;93591.81;;;9.27;100.00
39739;BME280;25422;48.286;8.484;2023-05-10T01:50:24;93597.22;;;9.26;100.00
39739;BME280;25422;48.286;8.484;2023-05-10T01:52:55;93602.44;;;9.26;100.00
39739;BME280;25422;48.286;8.484;2023-05-10T01:55:23;93599.81;;;9.26;100.00
39739;BME280;25422;48.286;8.484;2023-05-10T01:57:56;93605.41;;;9.23;100.00
39739;BME280;25422;48.286;8.484;2023-05-10T02:00:24;93612.41;;;9.22;100.00
39739;BME280;25422;48.286;8.484;2023-05-10T02:02:52;93610.38;;;9.33;100.00
39739;BME280;25422;48.286;8.484;2023-05-10T02:05:19;93613.34;;;9.30;100.00
39739;BME280;25422;48.286;8.484;2023-05-10T02:07:46;93614.50;;;9.27;100.00
39739;BME280;25422;48.286;8.484;2023-05-10T02:10:13;93615.13;;;9.29;100.00
39739;BME280;25422;48.286;8.484;2023-05-10T02:12:41;93611.88;;;9.27;100.00
39739;BME280;25422;48.286;8.484;2023-05-10T02:15:10;93612.50;;;9.29;100.00
39739;BME280;25422;48.286;8.484;2023-05-10T02:17:37;93621.00;;;9.31;100.00
39739;BME280;25422;48.286;8.484;2023-05-10T02:20:05;93618.50;;;9.38;100.00
39739;BME280;25422;48.286;8.484;2023-05-10T02:22:32;93618.50;;;9.38;100.00
39739;BME280;25422;48.286;8.484;2023-05-10T02:24:59;93615.59;;;9.33;100.00
39739;BME280;25422;48.286;8.484;2023-05-10T02:27:27;93618.84;;;9.35;100.00
39739;BME280;25422;48.286;8.484;2023-05-10T02:29:54;93624.22;;;9.33;100.00
39739;BME280;25422;48.286;8.484;2023-05-10T02:32:22;93622.63;;;9.32;100.00
39739;BME280;25422;48.286;8.484;2023-05-10T02:34:49;93624.13;;;9.26;100.00
39739;BME280;25422;48.286;8.484;2023-05-10T02:37:18;93630.34;;;9.25;100.00
39739;BME280;25422;48.286;8.484;2023-05-10T02:39:47;93634.72;;;9.25;100.00
39739;BME280;25422;48.286;8.484;2023-05-10T02:42:16;93621.84;;;9.23;100.00
39739;BME280;25422;48.286;8.484;2023-05-10T02:44:43;93626.28;;;9.23;100.00
39739;BME280;25422;48.286;8.484;2023-05-10T02:47:10;93623.31;;;9.26;100.00
39739;BME280;25422;48.286;8.484;2023-05-10T02:49:36;93622.69;;;9.24;100.00
39739;BME280;25422;48.286;8.484;2023-05-10T02:52:04;93625.75;;;9.27;100.00
39739;BME280;25422;48.286;8.484;2023-05-10T02:54:39;93624.28;;;9.25;100.00
39739;BME280;25422;48.286;8.484;2023-05-10T02:57:07;93621.00;;;9.31;100.00
39739;BME280;25422;48.286;8.484;2023-05-10T02:59:34;93624.94;;;9.27;100.00
39739;BME280;25422;48.286;8.484;2023-05-10T03:02:00;93626.91;;;9.25;100.00
39739;BME280;25422;48.286;8.484;2023-05-10T03:04:27;93626.41;;;9.30;100.00
39739;BME280;25422;48.286;8.484;2023-05-10T03:06:55;93623.13;;;9.27;100.00
39739;BME280;25422;48.286;8.484;2023-05-10T03:09:20;93624.13;;;9.26;100.00
39739;BME280;25422;48.286;8.484;2023-05-10T03:15:00;93628.22;;;9.21;100.00
39739;BME280;25422;48.286;8.484;2023-05-10T03:17:34;93619.31;;;9.15;100.00
39739;BME280;25422;48.286;8.484;2023-05-10T03:20:06;93623.44;;;9.09;100.00
39739;BME280;25422;48.286;8.484;2023-05-10T03:22:55;93622.16;;;9.05;100.00
39739;BME280;25422;48.286;8.484;2023-05-10T03:25:25;93633.13;;;9.01;100.00
39739;BME280;25422;48.286;8.484;2023-05-10T03:27:52;93629.06;;;8.98;100.00
39739;BME280;25422;48.286;8.484;2023-05-10T03:30:19;93629.97;;;9.05;100.00
39739;BME280;25422;48.286;8.484;2023-05-10T03:32:45;93631.50;;;9.00;100.00
39739;BME280;25422;48.286;8.484;2023-05-10T03:35:12;93636.06;;;8.98;100.00
39739;BME280;25422;48.286;8.484;2023-05-10T03:37:38;93633.13;;;9.01;100.00
39739;BME280;25422;48.286;8.484;2023-05-10T03:40:05;93640.97;;;9.01;100.00
39739;BME280;25422;48.286;8.484;2023-05-10T03:42:35;93640.31;;;8.99;100.00
39739;BME280;25422;48.286;8.484;2023-05-10T03:45:01;93638.03;;;8.96;100.00
39739;BME280;25422;48.286;8.484;2023-05-10T03:47:26;93647.16;;;9.00;100.00
39739;BME280;25422;48.286;8.484;2023-05-10T03:49:51;93640.31;;;8.99;100.00
39739;BME280;25422;48.286;8.484;2023-05-10T03:52:17;93647.31;;;8.98;100.00
39739;BME280;25422;48.286;8.484;2023-05-10T03:54:43;93645.81;;;9.04;100.00
39739;BME280;25422;48.286;8.484;2023-05-10T03:57:09;93643.84;;;9.06;100.00
39739;BME280;25422;48.286;8.484;2023-05-10T03:59:35;93639.09;;;9.09;100.00
39739;BME280;25422;48.286;8.484;2023-05-10T04:02:00;93636.00;;;9.06;100.00
39739;BME280;25422;48.286;8.484;2023-05-10T04:04:25;93645.63;;;9.05;100.00
39739;BME280;25422;48.286;8.484;2023-05-10T04:06:51;93646.25;;;9.07;100.00
39739;BME280;25422;48.286;8.484;2023-05-10T04:09:16;93648.88;;;9.07;100.00
39739;BME280;25422;48.286;8.484;2023-05-10T04:11:42;93648.19;;;9.14;100.00
39739;BME280;25422;48.286;8.484;2023-05-10T04:14:08;93646.06;;;9.17;100.00
39739;BME280;25422;48.286;8.484;2023-05-10T04:16:33;93648.84;;;9.16;100.00
39739;BME280;25422;48.286;8.484;2023-05-10T04:18:59;93656.69;;;9.16;100.00
39739;BME280;25422;48.286;8.484;2023-05-10T04:21:25;93657.84;;;9.13;100.00
39739;BME280;25422;48.286;8.484;2023-05-10T04:23:50;93661.59;;;9.10;100.00
39739;BME280;25422;48.286;8.484;2023-05-10T04:26:16;93654.94;;;9.08;100.00
39739;BME280;25422;48.286;8.484;2023-05-10T04:28:41;93654.56;;;9.11;100.00
39739;BME280;25422;48.286;8.484;2023-05-10T04:31:08;93651.97;;;9.11;100.00
39739;BME280;25422;48.286;8.484;2023-05-10T04:33:34;93651.66;;;9.06;100.00
39739;BME280;25422;48.286;8.484;2023-05-10T04:36:00;93649.41;;;9.03;100.00
39739;BME280;25422;48.286;8.484;2023-05-10T04:38:26;93654.16;;;8.99;100.00
39739;BME280;25422;48.286;8.484;2023-05-10T04:40:52;93659.53;;;8.98;100.00
39739;BME280;25422;48.286;8.484;2023-05-10T04:43:17;93656.47;;;8.94;100.00
39739;BME280;25422;48.286;8.484;2023-05-10T04:45:43;93664.63;;;8.91;100.00
39739;BME280;25422;48.286;8.484;2023-05-10T04:48:08;93658.63;;;8.90;100.00
39739;BME280;25422;48.286;8.484;2023-05-10T04:50:34;93661.69;;;8.94;100.00
39739;BME280;25422;48.286;8.484;2023-05-10T04:52:59;93667.38;;;8.98;100.00
39739;BME280;25422;48.286;8.484;2023-05-10T04:55:25;93668.34;;;8.97;100.00
39739;BME280;25422;48.286;8.484;2023-05-10T04:57:51;93668.53;;;8.95;100.00
39739;BME280;25422;48.286;8.484;2023-05-10T05:00:17;93668.81;;;9.00;100.00
39739;BME280;25422;48.286;8.484;2023-05-10T05:02:45;93671.59;;;8.99;100.00
39739;BME280;25422;48.286;8.484;2023-05-10T05:05:12;93667.19;;;8.99;100.00
39739;BME280;25422;48.286;8.484;2023-05-10T05:07:37;93666.03;;;9.02;100.00
39739;BME280;25422;48.286;8.484;2023-05-10T05:10:07;93677.31;;;9.02;100.00
39739;BME280;25422;48.286;8.484;2023-05-10T05:12:34;93670.75;;;9.06;100.00
39739;BME280;25422;48.286;8.484;2023-05-10T05:14:59;93678.88;;;9.11;100.00
39739;BME280;25422;48.286;8.484;2023-05-10T05:17:24;93680.97;;;9.16;100.00
39739;BME280;25422;48.286;8.484;2023-05-10T05:19:50;93683.41;;;9.18;100.00
39739;BME280;25422;48.286;8.484;2023-05-10T05:22:15;93686.25;;;9.31;100.00
39739;BME280;25422;48.286;8.484;2023-05-10T05:24:41;93689.47;;;9.41;100.00
39739;BME280;25422;48.286;8.484;2023-05-10T05:27:06;93691.81;;;9.51;100.00
39739;BME280;25422;48.286;8.484;2023-05-10T05:29:32;93682.13;;;9.60;100.00
39739;BME280;25422;48.286;8.484;2023-05-10T05:31:57;93690.66;;;9.77;100.00
39739;BME280;25422;48.286;8.484;2023-05-10T05:34:23;93684.59;;;9.76;100.00
39739;BME280;25422;48.286;8.484;2023-05-10T05:36:49;93691.44;;;9.77;100.00
39739;BME280;25422;48.286;8.484;2023-05-10T05:39:14;93686.88;;;9.79;100.00
39739;BME280;25422;48.286;8.484;2023-05-10T05:41:40;93697.94;;;9.82;100.00
39739;BME280;25422;48.286;8.484;2023-05-10T05:44:05;93697.25;;;9.88;100.00
39739;BME280;25422;48.286;8.484;2023-05-10T05:46:31;93698.16;;;9.95;100.00
39739;BME280;25422;48.286;8.484;2023-05-10T05:48:56;93704.19;;;9.95;100.00
39739;BME280;25422;48.286;8.484;2023-05-10T05:51:22;93709.41;;;9.95;100.00
39739;BME280;25422;48.286;8.484;2023-05-10T05:53:47;93701.06;;;10.00;100.00
39739;BME280;25422;48.286;8.484;2023-05-10T05:56:12;93699.53;;;10.06;100.00
39739;BME280;25422;48.286;8.484;2023-05-10T05:58:38;93700.59;;;9.96;100.00
39739;BME280;25422;48.286;8.484;2023-05-10T06:01:03;93708.34;;;10.05;100.00
39739;BME280;25422;48.286;8.484;2023-05-10T06:03:28;93708.34;;;10.05;100.00
39739;BME280;25422;48.286;8.484;2023-05-10T06:05:54;93703.22;;;10.11;100.00
39739;BME280;25422;48.286;8.484;2023-05-10T06:08:19;93712.25;;;10.24;100.00
39739;BME280;25422;48.286;8.484;2023-05-10T06:10:45;93708.84;;;10.23;100.00
39739;BME280;25422;48.286;8.484;2023-05-10T06:13:11;93708.59;;;10.48;100.00
39739;BME280;25422;48.286;8.484;2023-05-10T06:15:36;93712.28;;;10.54;100.00
39739;BME280;25422;48.286;8.484;2023-05-10T06:18:01;93712.84;;;10.64;100.00
39739;BME280;25422;48.286;8.484;2023-05-10T06:20:27;93710.22;;;10.79;100.00
39739;BME280;25422;48.286;8.484;2023-05-10T06:22:52;93719.25;;;10.76;100.00
39739;BME280;25422;48.286;8.484;2023-05-10T06:25:18;93723.22;;;10.72;100.00
39739;BME280;25422;48.286;8.484;2023-05-10T06:27:44;93717.81;;;10.44;100.00
39739;BME280;25422;48.286;8.484;2023-05-10T06:30:09;93729.47;;;10.33;100.00
39739;BME280;25422;48.286;8.484;2023-05-10T06:32:35;93734.03;;;10.39;100.00
39739;BME280;25422;48.286;8.484;2023-05-10T06:35:01;93721.25;;;10.44;100.00
39739;BME280;25422;48.286;8.484;2023-05-10T06:37:26;93730.25;;;10.42;100.00
39739;BME280;25422;48.286;8.484;2023-05-10T06:39:51;93731.94;;;10.35;100.00
39739;BME280;25422;48.286;8.484;2023-05-10T06:42:17;93728.50;;;10.34;100.00
39739;BME280;25422;48.286;8.484;2023-05-10T06:44:45;93734.09;;;10.31;100.00
39739;BME280;25422;48.286;8.484;2023-05-10T06:47:10;93735.44;;;10.27;100.00
39739;BME280;25422;48.286;8.484;2023-05-10T06:49:36;93740.44;;;10.37;100.00
39739;BME280;25422;48.286;8.484;2023-05-10T06:52:02;93739.78;;;10.35;100.00
39739;BME280;25422;48.286;8.484;2023-05-10T06:54:27;93738.00;;;10.35;100.00
39739;BME280;25422;48.286;8.484;2023-05-10T06:56:53;93742.91;;;10.30;100.00
39739;BME280;25422;48.286;8.484;2023-05-10T06:59:18;93741.59;;;9.96;100.00
39739;BME280;25422;48.286;8.484;2023-05-10T07:01:44;93741.84;;;9.86;100.00
39739;BME280;25422;48.286;8.484;2023-05-10T07:04:10;93739.78;;;9.96;100.00
39739;BME280;25422;48.286;8.484;2023-05-10T07:06:35;93743.03;;;9.99;100.00
39739;BME280;25422;48.286;8.484;2023-05-10T07:09:01;93742.69;;;10.02;100.00
39739;BME280;25422;48.286;8.484;2023-05-10T07:11:26;93746.81;;;9.96;100.00
39739;BME280;25422;48.286;8.484;2023-05-10T07:13:52;93753.09;;;9.87;100.00
39739;BME280;25422;48.286;8.484;2023-05-10T07:16:17;93757.41;;;9.79;100.00
39739;BME280;25422;48.286;8.484;2023-05-10T07:18:43;93746.13;;;9.56;100.00
39739;BME280;25422;48.286;8.484;2023-05-10T07:21:08;93743.63;;;9.39;100.00
39739;BME280;25422;48.286;8.484;2023-05-10T07:23:34;93746.13;;;9.33;100.00
39739;BME280;25422;48.286;8.484;2023-05-10T07:25:59;93744.72;;;9.45;100.00
39739;BME280;25422;48.286;8.484;2023-05-10T07:28:25;93752.69;;;9.52;100.00
39739;BME280;25422;48.286;8.484;2023-05-10T07:30:50;93751.34;;;9.56;100.00
39739;BME280;25422;48.286;8.484;2023-05-10T07:33:16;93756.06;;;9.60;100.00
39739;BME280;25422;48.286;8.484;2023-05-10T07:35:42;93758.63;;;9.69;100.00
39739;BME280;25422;48.286;8.484;2023-05-10T07:38:08;93755.47;;;9.73;100.00
39739;BME280;25422;48.286;8.484;2023-05-10T07:40:33;93760.28;;;9.61;100.00
39739;BME280;25422;48.286;8.484;2023-05-10T07:42:59;93762.75;;;9.63;100.00
39739;BME280;25422;48.286;8.484;2023-05-10T07:45:28;93752.25;;;9.40;100.00
39739;BME280;25422;48.286;8.484;2023-05-10T07:47:54;93758.56;;;9.54;100.00
39739;BME280;25422;48.286;8.484;2023-05-10T07:50:19;93761.13;;;9.85;100.00
39739;BME280;25422;48.286;8.484;2023-05-10T07:52:46;93754.84;;;9.94;100.00
39739;BME280;25422;48.286;8.484;2023-05-10T07:55:11;93765.84;;;10.05;100.00
39739;BME280;25422;48.286;8.484;2023-05-10T07:57:37;93764.13;;;9.97;100.00
39739;BME280;25422;48.286;8.484;2023-05-10T08:00:03;93768.22;;;10.15;100.00
39739;BME280;25422;48.286;8.484;2023-05-10T08:02:38;93773.97;;;10.10;100.00
39739;BME280;25422;48.286;8.484;2023-05-10T08:05:04;93783.41;;;9.96;100.00
39739;BME280;25422;48.286;8.484;2023-05-10T08:07:30;93779.22;;;9.87;100.00
39739;BME280;25422;48.286;8.484;2023-05-10T08:09:56;93781.03;;;9.63;100.00
39739;BME280;25422;48.286;8.484;2023-05-10T08:12:21;93777.78;;;9.61;100.00
39739;BME280;25422;48.286;8.484;2023-05-10T08:14:46;93777.19;;;9.74;100.00
39739;BME280;25422;48.286;8.484;2023-05-10T08:17:12;93775.50;;;9.81;100.00
39739;BME280;25422;48.286;8.484;2023-05-10T08:19:37;93778.13;;;9.81;100.00
39739;BME280;25422;48.286;8.484;2023-05-10T08:22:03;93776.44;;;9.88;100.00
39739;BME280;25422;48.286;8.484;2023-05-10T08:24:28;93767.50;;;10.21;100.00
39739;BME280;25422;48.286;8.484;2023-05-10T08:26:53;93774.44;;;10.37;100.00
39739;BME280;25422;48.286;8.484;2023-05-10T08:29:19;93780.09;;;10.40;100.00
39739;BME280;25422;48.286;8.484;2023-05-10T08:31:44;93777.38;;;10.34;100.00
39739;BME280;25422;48.286;8.484;2023-05-10T08:34:10;93780.22;;;10.24;100.00
39739;BME280;25422;48.286;8.484;2023-05-10T08:36:35;93783.94;;;10.29;100.00
39739;BME280;25422;48.286;8.484;2023-05-10T08:39:01;93784.06;;;10.13;100.00
39739;BME280;25422;48.286;8.484;2023-05-10T08:41:26;93789.97;;;10.30;100.00
39739;BME280;25422;48.286;8.484;2023-05-10T08:43:53;93793.47;;;10.45;100.00
39739;BME280;25422;48.286;8.484;2023-05-10T08:46:20;93791.22;;;10.42;100.00
39739;BME280;25422;48.286;8.484;2023-05-10T08:48:47;93790.84;;;10.60;100.00
39739;BME280;25422;48.286;8.484;2023-05-10T08:51:19;93786.75;;;10.96;100.00
39739;BME280;25422;48.286;8.484;2023-05-10T08:53:45;93800.25;;;11.00;100.00
39739;BME280;25422;48.286;8.484;2023-05-10T08:56:11;93789.47;;;11.39;100.00
39739;BME280;25422;48.286;8.484;2023-05-10T08:58:37;93798.63;;;11.87;100.00
39739;BME280;25422;48.286;8.484;2023-05-10T09:01:03;93804.34;;;12.34;100.00
39739;BME280;25422;48.286;8.484;2023-05-10T09:03:30;93805.59;;;11.94;100.00
39739;BME280;25422;48.286;8.484;2023-05-10T09:05:56;93806.59;;;11.57;100.00
39739;BME280;25422;48.286;8.484;2023-05-10T09:08:23;93801.72;;;11.90;100.00
39739;BME280;25422;48.286;8.484;2023-05-10T09:10:51;93792.50;;;11.58;100.00
39739;BME280;25422;48.286;8.484;2023-05-10T09:13:18;93788.25;;;11.57;100.00
39739;BME280;25422;48.286;8.484;2023-05-10T09:15:45;93789.34;;;11.47;100.00
39739;BME280;25422;48.286;8.484;2023-05-10T09:18:11;93790.78;;;11.87;100.00
39739;BME280;25422;48.286;8.484;2023-05-10T09:20:36;93798.53;;;11.95;100.00
39739;BME280;25422;48.286;8.484;2023-05-10T09:23:01;93786.19;;;12.10;100.00
39739;BME280;25422;48.286;8.484;2023-05-10T09:25:27;93795.84;;;12.60;100.00
39739;BME280;25422;48.286;8.484;2023-05-10T09:27:52;93785.44;;;12.73;100.00
39739;BME280;25422;48.286;8.484;2023-05-10T09:30:26;93787.03;;;13.03;100.00
39739;BME280;25422;48.286;8.484;2023-05-10T09:32:53;93785.28;;;13.16;100.00
39739;BME280;25422;48.286;8.484;2023-05-10T09:35:21;93786.09;;;13.59;100.00
39739;BME280;25422;48.286;8.484;2023-05-10T09:37:49;93777.72;;;14.24;100.00
39739;BME280;25422;48.286;8.484;2023-05-10T09:40:22;93794.44;;;13.82;100.00
39739;BME280;25422;48.286;8.484;2023-05-10T09:45:21;93792.50;;;14.72;100.00
39739;BME280;25422;48.286;8.484;2023-05-10T09:47:47;93785.41;;;14.79;100.00
39739;BME280;25422;48.286;8.484;2023-05-10T09:50:12;93793.66;;;14.02;100.00
39739;BME280;25422;48.286;8.484;2023-05-10T09:52:55;93796.13;;;14.57;100.00
39739;BME280;25422;48.286;8.484;2023-05-10T09:55:23;93786.03;;;14.41;100.00
39739;BME280;25422;48.286;8.484;2023-05-10T09:58:00;93801.38;;;14.24;100.00
39739;BME280;25422;48.286;8.484;2023-05-10T10:00:27;93794.47;;;14.09;100.00
39739;BME280;25422;48.286;8.484;2023-05-10T10:02:58;93793.63;;;13.89;100.00
39739;BME280;25422;48.286;8.484;2023-05-10T10:05:34;93802.22;;;13.49;100.00
39739;BME280;25422;48.286;8.484;2023-05-10T10:08:02;93815.88;;;12.96;100.00
39739;BME280;25422;48.286;8.484;2023-05-10T10:10:28;93826.44;;;12.46;100.00
39739;BME280;25422;48.286;8.484;2023-05-10T10:12:55;93835.25;;;12.17;100.00
39739;BME280;25422;48.286;8.484;2023-05-10T10:15:21;93853.25;;;11.02;100.00
39739;BME280;25422;48.286;8.484;2023-05-10T10:17:48;93857.59;;;9.87;100.00
39739;BME280;25422;48.286;8.484;2023-05-10T10:20:15;93870.16;;;9.20;100.00
39739;BME280;25422;48.286;8.484;2023-05-10T10:22:40;93869.25;;;8.88;100.00
39739;BME280;25422;48.286;8.484;2023-05-10T10:25:07;93872.38;;;8.92;100.00
39739;BME280;25422;48.286;8.484;2023-05-10T10:27:44;93869.72;;;9.08;100.00
39739;BME280;25422;48.286;8.484;2023-05-10T10:30:15;93856.69;;;9.00;100.00
39739;BME280;25422;48.286;8.484;2023-05-10T10:33:01;93866.06;;;9.26;100.00
39739;BME280;25422;48.286;8.484;2023-05-10T10:35:33;93868.50;;;9.27;100.00
39739;BME280;25422;48.286;8.484;2023-05-10T10:38:00;93867.59;;;9.52;100.00
39739;BME280;25422;48.286;8.484;2023-05-10T10:42:51;93861.56;;;9.51;100.00
39739;BME280;25422;48.286;8.484;2023-05-10T10:45:17;93862.31;;;9.60;100.00
39739;BME280;25422;48.286;8.484;2023-05-10T10:47:43;93861.44;;;9.76;100.00
39739;BME280;25422;48.286;8.484;2023-05-10T10:50:10;93864.81;;;9.53;100.00
39739;BME280;25422;48.286;8.484;2023-05-10T10:52:40;93859.38;;;9.63;100.00
39739;BME280;25422;48.286;8.484;2023-05-10T10:55:11;93859.09;;;9.58;100.00
39739;BME280;25422;48.286;8.484;2023-05-10T11:00:25;93858.13;;;9.82;100.00
39739;BME280;25422;48.286;8.484;2023-05-10T11:03:00;93855.00;;;9.87;100.00
39739;BME280;25422;48.286;8.484;2023-05-10T11:05:43;93855.13;;;10.17;100.00
39739;BME280;25422;48.286;8.484;2023-05-10T11:08:15;93850.94;;;10.69;100.00
39739;BME280;25422;48.286;8.484;2023-05-10T11:13:45;93856.50;;;11.34;100.00
39739;BME280;25422;48.286;8.484;2023-05-10T11:16:13;93854.59;;;11.94;100.00
39739;BME280;25422;48.286;8.484;2023-05-10T11:18:39;93837.38;;;12.06;100.00
39739;BME280;25422;48.286;8.484;2023-05-10T11:21:08;93848.34;;;12.60;100.00
39739;BME280;25422;48.286;8.484;2023-05-10T11:26:07;93841.72;;;11.99;100.00
39739;BME280;25422;48.286;8.484;2023-05-10T11:28:41;93842.25;;;12.09;100.00
39739;BME280;25422;48.286;8.484;2023-05-10T11:31:07;93837.19;;;12.29;100.00
39739;BME280;25422;48.286;8.484;2023-05-10T11:33:45;93840.66;;;12.58;100.00
39739;BME280;25422;48.286;8.484;2023-05-10T11:36:15;93845.91;;;12.87;100.00
39739;BME280;25422;48.286;8.484;2023-05-10T11:38:41;93841.44;;;13.51;100.00
39739;BME280;25422;48.286;8.484;2023-05-10T11:41:11;93838.88;;;13.64;100.00
39739;BME280;25422;48.286;8.484;2023-05-10T11:43:38;93841.19;;;13.94;100.00
39739;BME280;25422;48.286;8.484;2023-05-10T11:46:13;93843.53;;;13.62;100.00
39739;BME280;25422;48.286;8.484;2023-05-10T11:48:39;93847.41;;;13.66;100.00
39739;BME280;25422;48.286;8.484;2023-05-10T11:51:09;93855.66;;;13.28;100.00
39739;BME280;25422;48.286;8.484;2023-05-10T11:53:35;93850.41;;;13.28;100.00
39739;BME280;25422;48.286;8.484;2023-05-10T11:56:07;93844.81;;;13.86;100.00
39739;BME280;25422;48.286;8.484;2023-05-10T11:58:34;93848.31;;;14.00;100.00
39739;BME280;25422;48.286;8.484;2023-05-10T12:01:00;93840.94;;;13.75;100.00
39739;BME280;25422;48.286;8.484;2023-05-10T12:03:29;93835.78;;;14.15;100.00
39739;BME280;25422;48.286;8.484;2023-05-10T12:05:56;93845.78;;;14.74;100.00
39739;BME280;25422;48.286;8.484;2023-05-10T12:08:23;93843.16;;;14.67;100.00
39739;BME280;25422;48.286;8.484;2023-05-10T12:10:50;93847.59;;;14.80;100.00
39739;BME280;25422;48.286;8.484;2023-05-10T12:13:16;93841.88;;;14.29;100.00
39739;BME280;25422;48.286;8.484;2023-05-10T12:15:42;93842.03;;;13.46;100.00
39739;BME280;25422;48.286;8.484;2023-05-10T12:18:12;93837.66;;;13.60;100.00
39739;BME280;25422;48.286;8.484;2023-05-10T12:20:38;93835.78;;;13.54;100.00
39739;BME280;25422;48.286;8.484;2023-05-10T12:23:04;93839.41;;;13.46;100.00
39739;BME280;25422;48.286;8.484;2023-05-10T12:25:35;93850.25;;;13.78;100.00
39739;BME280;25422;48.286;8.484;2023-05-10T12:28:04;93853.34;;;13.95;100.00
39739;BME280;25422;48.286;8.484;2023-05-10T12:30:32;93848.16;;;14.62;100.00
39739;BME280;25422;48.286;8.484;2023-05-10T12:35:33;93840.38;;;16.06;100.00
39739;BME280;25422;48.286;8.484;2023-05-10T12:37:59;93838.44;;;15.81;100.00
39739;BME280;25422;48.286;8.484;2023-05-10T12:40:24;93840.69;;;16.74;100.00
39739;BME280;25422;48.286;8.484;2023-05-10T12:42:50;93843.22;;;16.68;100.00
39739;BME280;25422;48.286;8.484;2023-05-10T12:45:17;93849.25;;;15.60;100.00
39739;BME280;25422;48.286;8.484;2023-05-10T12:47:43;93842.28;;;15.13;100.00
39739;BME280;25422;48.286;8.484;2023-05-10T12:50:09;93844.53;;;14.49;100.00
39739;BME280;25422;48.286;8.484;2023-05-10T12:52:34;93837.19;;;13.49;100.00
39739;BME280;25422;48.286;8.484;2023-05-10T12:55:00;93849.63;;;13.34;100.00
39739;BME280;25422;48.286;8.484;2023-05-10T12:57:26;93850.03;;;13.31;100.00
39739;BME280;25422;48.286;8.484;2023-05-10T12:59:53;93853.41;;;13.25;100.00
39739;BME280;25422;48.286;8.484;2023-05-10T13:02:18;93851.16;;;13.50;100.00
39739;BME280;25422;48.286;8.484;2023-05-10T13:04:45;93847.09;;;13.47;100.00
39739;BME280;25422;48.286;8.484;2023-05-10T13:07:11;93833.66;;;13.71;100.00
39739;BME280;25422;48.286;8.484;2023-05-10T13:09:37;93834.25;;;13.66;100.00
39739;BME280;25422;48.286;8.484;2023-05-10T13:12:02;93837.31;;;13.83;100.00
39739;BME280;25422;48.286;8.484;2023-05-10T13:14:29;93835.00;;;14.35;100.00
39739;BME280;25422;48.286;8.484;2023-05-10T13:16:54;93834.53;;;15.91;100.00
39739;BME280;25422;48.286;8.484;2023-05-10T13:19:20;93828.25;;;15.92;100.00
39739;BME280;25422;48.286;8.484;2023-05-10T13:21:46;93815.00;;;16.05;91.37